sensor_id;sensor_type;location;lat;lon;timestamp;P1;durP1;ratioP1;P2;durP2;ratioP2
35380;SDS011;21486;51.916;8.378;2024-02-26T00:01:52;4.57;;;2.92;;
35380;SDS011;21486;51.916;8.378;2024-02-26T00:04:18;4.03;;;2.97;;
35380;SDS011;21486;51.916;8.378;2024-02-26T00:06:43;4.57;;;3.17;;
35380;SDS011;21486;51.916;8.378;2024-02-26T00:09:09;4.30;;;3.15;;
35380;SDS011;21486;51.916;8.378;2024-02-26T00:11:35;7.65;;;3.53;;
35380;SDS011;21486;51.916;8.378;2024-02-26T00:14:01;6.40;;;3.95;;
35380;SDS011;21486;51.916;8.378;2024-02-26T00:16:27;7.18;;;3.40;;
35380;SDS011;21486;51.916;8.378;2024-02-26T00:18:52;5.70;;;3.38;;
35380;SDS011;21486;51.916;8.378;2024-02-26T00:21:18;8.82;;;4.00;;
35380;SDS011;21486;51.916;8.378;2024-02-26T00:23:43;7.28;;;4.03;;
35380;SDS011;21486;51.916;8.378;2024-02-26T00:26:09;6.55;;;3.75;;
35380;SDS011;21486;51.916;8.378;2024-02-26T00:28:35;15.35;;;5.28;;
35380;SDS011;21486;51.916;8.378;2024-02-26T00:31:01;10.02;;;5.22;;
35380;SDS011;21486;51.916;8.378;2024-02-26T00:33:27;10.98;;;5.45;;
35380;SDS011;21486;51.916;8.378;2024-02-26T00:35:53;8.57;;;4.82;;
35380;SDS011;21486;51.916;8.378;2024-02-26T00:38:18;8.80;;;5.30;;
35380;SDS011;21486;51.916;8.378;2024-02-26T00:40:44;13.52;;;5.25;;
35380;SDS011;21486;51.916;8.378;2024-02-26T00:43:09;13.27;;;5.40;;
35380;SDS011;21486;51.916;8.378;2024-02-26T00:45:35;6.90;;;4.70;;
35380;SDS011;21486;51.916;8.378;2024-02-26T00:48:00;8.55;;;4.90;;
35380;SDS011;21486;51.916;8.378;2024-02-26T00:50:29;8.88;;;5.32;;
35380;SDS011;21486;51.916;8.378;2024-02-26T00:52:55;7.70;;;4.18;;
35380;SDS011;21486;51.916;8.378;2024-02-26T00:55:20;9.55;;;5.50;;
35380;SDS011;21486;51.916;8.378;2024-02-26T00:57:46;8.75;;;5.18;;
35380;SDS011;21486;51.916;8.378;2024-02-26T01:00:12;9.02;;;5.00;;
35380;SDS011;21486;51.916;8.378;2024-02-26T01:02:38;10.85;;;5.55;;
35380;SDS011;21486;51.916;8.378;2024-02-26T01:05:04;6.85;;;4.97;;
35380;SDS011;21486;51.916;8.378;2024-02-26T01:07:31;9.15;;;5.28;;
35380;SDS011;21486;51.916;8.378;2024-02-26T01:10:00;10.82;;;4.78;;
35380;SDS011;21486;51.916;8.378;2024-02-26T01:12:27;6.97;;;4.85;;
35380;SDS011;21486;51.916;8.378;2024-02-26T01:14:52;10.52;;;5.35;;
35380;SDS011;21486;51.916;8.378;2024-02-26T01:17:18;6.97;;;4.82;;
35380;SDS011;21486;51.916;8.378;2024-02-26T01:19:43;7.93;;;4.32;;
35380;SDS011;21486;51.916;8.378;2024-02-26T01:22:09;9.45;;;4.82;;
35380;SDS011;21486;51.916;8.378;2024-02-26T01:24:35;7.65;;;4.20;;
35380;SDS011;21486;51.916;8.378;2024-02-26T01:27:00;12.20;;;4.68;;
35380;SDS011;21486;51.916;8.378;2024-02-26T01:29:26;8.25;;;5.15;;
35380;SDS011;21486;51.916;8.378;2024-02-26T01:33:02;8.80;;;5.30;;
35380;SDS011;21486;51.916;8.378;2024-02-26T01:35:28;11.00;;;4.65;;
35380;SDS011;21486;51.916;8.378;2024-02-26T01:37:54;8.85;;;4.40;;
35380;SDS011;21486;51.916;8.378;2024-02-26T01:40:19;6.70;;;4.07;;
35380;SDS011;21486;51.916;8.378;2024-02-26T01:42:45;9.30;;;4.50;;
35380;SDS011;21486;51.916;8.378;2024-02-26T01:45:14;5.20;;;3.85;;
35380;SDS011;21486;51.916;8.378;2024-02-26T01:47:46;7.70;;;4.10;;
35380;SDS011;21486;51.916;8.378;2024-02-26T01:50:14;9.07;;;4.57;;
35380;SDS011;21486;51.916;8.378;2024-02-26T01:52:40;5.63;;;3.85;;
35380;SDS011;21486;51.916;8.378;2024-02-26T01:55:06;4.40;;;3.05;;
35380;SDS011;21486;51.916;8.378;2024-02-26T01:57:33;6.10;;;3.30;;
35380;SDS011;21486;51.916;8.378;2024-02-26T01:59:59;4.43;;;3.28;;
35380;SDS011;21486;51.916;8.378;2024-02-26T02:02:24;3.75;;;3.15;;
35380;SDS011;21486;51.916;8.378;2024-02-26T02:04:50;6.65;;;3.38;;
35380;SDS011;21486;51.916;8.378;2024-02-26T02:07:16;6.20;;;3.33;;
35380;SDS011;21486;51.916;8.378;2024-02-26T02:09:43;3.50;;;2.97;;
35380;SDS011;21486;51.916;8.378;2024-02-26T02:12:08;5.65;;;2.75;;
35380;SDS011;21486;51.916;8.378;2024-02-26T02:14:34;2.97;;;2.70;;
35380;SDS011;21486;51.916;8.378;2024-02-26T02:17:00;7.38;;;3.05;;
35380;SDS011;21486;51.916;8.378;2024-02-26T02:19:25;2.90;;;2.28;;
35380;SDS011;21486;51.916;8.378;2024-02-26T02:21:51;3.60;;;2.78;;
35380;SDS011;21486;51.916;8.378;2024-02-26T02:24:17;4.25;;;2.53;;
35380;SDS011;21486;51.916;8.378;2024-02-26T02:26:42;3.08;;;2.60;;
35380;SDS011;21486;51.916;8.378;2024-02-26T02:29:08;3.40;;;2.30;;
35380;SDS011;21486;51.916;8.378;2024-02-26T02:31:34;5.53;;;2.20;;
35380;SDS011;21486;51.916;8.378;2024-02-26T02:34:00;2.65;;;2.03;;
35380;SDS011;21486;51.916;8.378;2024-02-26T02:36:26;3.60;;;2.90;;
35380;SDS011;21486;51.916;8.378;2024-02-26T02:38:51;7.20;;;2.45;;
35380;SDS011;21486;51.916;8.378;2024-02-26T02:41:17;2.22;;;1.70;;
35380;SDS011;21486;51.916;8.378;2024-02-26T02:43:43;2.05;;;1.70;;
35380;SDS011;21486;51.916;8.378;2024-02-26T02:46:09;3.35;;;1.63;;
35380;SDS011;21486;51.916;8.378;2024-02-26T02:48:36;1.65;;;1.50;;
35380;SDS011;21486;51.916;8.378;2024-02-26T02:51:02;2.15;;;1.70;;
35380;SDS011;21486;51.916;8.378;2024-02-26T02:53:28;2.03;;;1.70;;
35380;SDS011;21486;51.916;8.378;2024-02-26T02:55:53;3.85;;;1.52;;
35380;SDS011;21486;51.916;8.378;2024-02-26T02:58:19;2.13;;;1.73;;
35380;SDS011;21486;51.916;8.378;2024-02-26T03:00:44;4.68;;;1.90;;
35380;SDS011;21486;51.916;8.378;2024-02-26T03:03:10;1.60;;;1.48;;
35380;SDS011;21486;51.916;8.378;2024-02-26T03:05:36;1.65;;;1.50;;
35380;SDS011;21486;51.916;8.378;2024-02-26T03:08:01;1.88;;;1.70;;
35380;SDS011;21486;51.916;8.378;2024-02-26T03:10:27;1.80;;;1.45;;
35380;SDS011;21486;51.916;8.378;2024-02-26T03:12:53;1.60;;;1.48;;
35380;SDS011;21486;51.916;8.378;2024-02-26T03:15:18;1.63;;;1.52;;
35380;SDS011;21486;51.916;8.378;2024-02-26T03:17:44;2.25;;;1.70;;
35380;SDS011;21486;51.916;8.378;2024-02-26T03:20:09;5.90;;;2.22;;
35380;SDS011;21486;51.916;8.378;2024-02-26T03:22:35;6.43;;;1.75;;
35380;SDS011;21486;51.916;8.378;2024-02-26T03:25:03;1.50;;;1.40;;
35380;SDS011;21486;51.916;8.378;2024-02-26T03:27:29;2.03;;;1.60;;
35380;SDS011;21486;51.916;8.378;2024-02-26T03:29:54;4.80;;;1.60;;
35380;SDS011;21486;51.916;8.378;2024-02-26T03:32:20;3.60;;;1.80;;
35380;SDS011;21486;51.916;8.378;2024-02-26T03:34:45;1.52;;;1.42;;
35380;SDS011;21486;51.916;8.378;2024-02-26T03:37:11;2.22;;;1.70;;
35380;SDS011;21486;51.916;8.378;2024-02-26T03:39:37;1.98;;;1.48;;
35380;SDS011;21486;51.916;8.378;2024-02-26T03:42:02;2.03;;;1.60;;
35380;SDS011;21486;51.916;8.378;2024-02-26T03:44:28;4.40;;;1.52;;
35380;SDS011;21486;51.916;8.378;2024-02-26T03:46:54;1.48;;;1.38;;
35380;SDS011;21486;51.916;8.378;2024-02-26T03:49:20;1.40;;;1.30;;
35380;SDS011;21486;51.916;8.378;2024-02-26T03:51:46;2.70;;;1.67;;
35380;SDS011;21486;51.916;8.378;2024-02-26T03:54:12;2.33;;;1.48;;
35380;SDS011;21486;51.916;8.378;2024-02-26T03:56:38;1.42;;;1.25;;
35380;SDS011;21486;51.916;8.378;2024-02-26T03:59:04;2.70;;;1.70;;
35380;SDS011;21486;51.916;8.378;2024-02-26T04:01:29;4.47;;;1.63;;
35380;SDS011;21486;51.916;8.378;2024-02-26T04:03:55;1.80;;;1.50;;
35380;SDS011;21486;51.916;8.378;2024-02-26T04:06:21;1.70;;;1.48;;
35380;SDS011;21486;51.916;8.378;2024-02-26T04:08:47;1.60;;;1.50;;
35380;SDS011;21486;51.916;8.378;2024-02-26T04:11:13;2.20;;;1.58;;
35380;SDS011;21486;51.916;8.378;2024-02-26T04:13:42;2.20;;;1.55;;
35380;SDS011;21486;51.916;8.378;2024-02-26T04:16:11;2.83;;;1.65;;
35380;SDS011;21486;51.916;8.378;2024-02-26T04:18:37;1.42;;;1.25;;
35380;SDS011;21486;51.916;8.378;2024-02-26T04:21:03;2.05;;;1.52;;
35380;SDS011;21486;51.916;8.378;2024-02-26T04:23:30;1.52;;;1.40;;
35380;SDS011;21486;51.916;8.378;2024-02-26T04:25:55;1.40;;;1.30;;
35380;SDS011;21486;51.916;8.378;2024-02-26T04:28:21;2.40;;;1.42;;
35380;SDS011;21486;51.916;8.378;2024-02-26T04:30:47;2.30;;;1.60;;
35380;SDS011;21486;51.916;8.378;2024-02-26T04:33:13;2.60;;;1.73;;
35380;SDS011;21486;51.916;8.378;2024-02-26T04:35:39;1.50;;;1.40;;
35380;SDS011;21486;51.916;8.378;2024-02-26T04:38:04;2.58;;;1.65;;
35380;SDS011;21486;51.916;8.378;2024-02-26T04:40:30;4.53;;;1.40;;
35380;SDS011;21486;51.916;8.378;2024-02-26T04:42:55;2.08;;;1.55;;
35380;SDS011;21486;51.916;8.378;2024-02-26T04:45:22;4.07;;;1.52;;
35380;SDS011;21486;51.916;8.378;2024-02-26T04:47:48;2.85;;;1.60;;
35380;SDS011;21486;51.916;8.378;2024-02-26T04:50:13;2.13;;;1.58;;
35380;SDS011;21486;51.916;8.378;2024-02-26T04:52:39;2.72;;;1.80;;
35380;SDS011;21486;51.916;8.378;2024-02-26T04:55:04;2.38;;;1.65;;
35380;SDS011;21486;51.916;8.378;2024-02-26T04:57:30;5.05;;;2.03;;
35380;SDS011;21486;51.916;8.378;2024-02-26T04:59:55;4.63;;;1.70;;
35380;SDS011;21486;51.916;8.378;2024-02-26T05:02:21;1.90;;;1.45;;
35380;SDS011;21486;51.916;8.378;2024-02-26T05:04:46;1.83;;;1.60;;
35380;SDS011;21486;51.916;8.378;2024-02-26T05:07:12;1.75;;;1.65;;
35380;SDS011;21486;51.916;8.378;2024-02-26T05:09:37;2.05;;;1.85;;
35380;SDS011;21486;51.916;8.378;2024-02-26T05:12:03;2.67;;;1.70;;
35380;SDS011;21486;51.916;8.378;2024-02-26T05:14:29;3.13;;;1.77;;
35380;SDS011;21486;51.916;8.378;2024-02-26T05:16:54;3.08;;;1.90;;
35380;SDS011;21486;51.916;8.378;2024-02-26T05:19:21;1.98;;;1.60;;
35380;SDS011;21486;51.916;8.378;2024-02-26T05:21:46;1.98;;;1.70;;
35380;SDS011;21486;51.916;8.378;2024-02-26T05:24:14;2.17;;;1.90;;
35380;SDS011;21486;51.916;8.378;2024-02-26T05:26:40;2.55;;;1.95;;
35380;SDS011;21486;51.916;8.378;2024-02-26T05:29:06;1.88;;;1.60;;
35380;SDS011;21486;51.916;8.378;2024-02-26T05:31:31;2.58;;;1.65;;
35380;SDS011;21486;51.916;8.378;2024-02-26T05:33:57;1.80;;;1.65;;
35380;SDS011;21486;51.916;8.378;2024-02-26T05:36:23;2.13;;;1.70;;
35380;SDS011;21486;51.916;8.378;2024-02-26T05:38:49;3.47;;;2.13;;
35380;SDS011;21486;51.916;8.378;2024-02-26T05:41:15;2.42;;;2.22;;
35380;SDS011;21486;51.916;8.378;2024-02-26T05:43:41;2.10;;;1.90;;
35380;SDS011;21486;51.916;8.378;2024-02-26T05:46:07;4.97;;;2.40;;
35380;SDS011;21486;51.916;8.378;2024-02-26T05:48:32;3.17;;;1.90;;
35380;SDS011;21486;51.916;8.378;2024-02-26T05:50:57;2.63;;;1.95;;
35380;SDS011;21486;51.916;8.378;2024-02-26T05:53:23;3.08;;;1.90;;
35380;SDS011;21486;51.916;8.378;2024-02-26T05:55:48;2.85;;;1.65;;
35380;SDS011;21486;51.916;8.378;2024-02-26T05:58:14;3.40;;;1.85;;
35380;SDS011;21486;51.916;8.378;2024-02-26T06:00:39;3.28;;;1.90;;
35380;SDS011;21486;51.916;8.378;2024-02-26T06:03:05;1.92;;;1.65;;
35380;SDS011;21486;51.916;8.378;2024-02-26T06:05:31;1.88;;;1.73;;
35380;SDS011;21486;51.916;8.378;2024-02-26T06:07:56;4.82;;;1.70;;
35380;SDS011;21486;51.916;8.378;2024-02-26T06:10:22;2.30;;;1.70;;
35380;SDS011;21486;51.916;8.378;2024-02-26T06:12:47;2.67;;;1.77;;
35380;SDS011;21486;51.916;8.378;2024-02-26T06:15:13;2.28;;;1.85;;
35380;SDS011;21486;51.916;8.378;2024-02-26T06:17:38;3.83;;;1.90;;
35380;SDS011;21486;51.916;8.378;2024-02-26T06:20:04;2.58;;;1.67;;
35380;SDS011;21486;51.916;8.378;2024-02-26T06:22:31;4.88;;;2.03;;
35380;SDS011;21486;51.916;8.378;2024-02-26T06:24:57;3.30;;;2.08;;
35380;SDS011;21486;51.916;8.378;2024-02-26T06:27:23;2.88;;;1.85;;
35380;SDS011;21486;51.916;8.378;2024-02-26T06:29:48;7.63;;;2.00;;
35380;SDS011;21486;51.916;8.378;2024-02-26T06:32:14;2.10;;;1.67;;
35380;SDS011;21486;51.916;8.378;2024-02-26T06:34:40;5.40;;;2.65;;
35380;SDS011;21486;51.916;8.378;2024-02-26T06:37:06;2.90;;;1.92;;
35380;SDS011;21486;51.916;8.378;2024-02-26T06:39:32;2.22;;;1.88;;
35380;SDS011;21486;51.916;8.378;2024-02-26T06:41:58;2.38;;;2.08;;
35380;SDS011;21486;51.916;8.378;2024-02-26T06:44:26;3.30;;;2.03;;
35380;SDS011;21486;51.916;8.378;2024-02-26T06:46:56;4.03;;;2.42;;
35380;SDS011;21486;51.916;8.378;2024-02-26T06:49:23;3.67;;;2.30;;
35380;SDS011;21486;51.916;8.378;2024-02-26T06:51:48;4.18;;;2.65;;
35380;SDS011;21486;51.916;8.378;2024-02-26T06:54:14;4.53;;;2.53;;
35380;SDS011;21486;51.916;8.378;2024-02-26T06:56:39;3.20;;;2.33;;
35380;SDS011;21486;51.916;8.378;2024-02-26T06:59:05;5.05;;;2.40;;
35380;SDS011;21486;51.916;8.378;2024-02-26T07:01:30;2.80;;;2.50;;
35380;SDS011;21486;51.916;8.378;2024-02-26T07:03:56;3.55;;;2.33;;
35380;SDS011;21486;51.916;8.378;2024-02-26T07:06:21;3.58;;;2.30;;
35380;SDS011;21486;51.916;8.378;2024-02-26T07:08:47;3.67;;;2.22;;
35380;SDS011;21486;51.916;8.378;2024-02-26T07:11:12;3.78;;;2.42;;
35380;SDS011;21486;51.916;8.378;2024-02-26T07:13:38;3.58;;;2.00;;
35380;SDS011;21486;51.916;8.378;2024-02-26T07:16:03;3.10;;;2.22;;
35380;SDS011;21486;51.916;8.378;2024-02-26T07:18:29;3.00;;;2.20;;
35380;SDS011;21486;51.916;8.378;2024-02-26T07:20:55;2.97;;;2.15;;
35380;SDS011;21486;51.916;8.378;2024-02-26T07:23:21;3.88;;;2.50;;
35380;SDS011;21486;51.916;8.378;2024-02-26T07:25:46;4.78;;;2.40;;
35380;SDS011;21486;51.916;8.378;2024-02-26T07:28:14;3.47;;;2.42;;
35380;SDS011;21486;51.916;8.378;2024-02-26T07:30:39;6.00;;;2.17;;
35380;SDS011;21486;51.916;8.378;2024-02-26T07:33:05;8.98;;;2.50;;
35380;SDS011;21486;51.916;8.378;2024-02-26T07:35:31;4.20;;;2.45;;
35380;SDS011;21486;51.916;8.378;2024-02-26T07:37:58;3.08;;;2.60;;
35380;SDS011;21486;51.916;8.378;2024-02-26T07:40:24;2.83;;;2.40;;
35380;SDS011;21486;51.916;8.378;2024-02-26T07:42:49;3.40;;;2.22;;
35380;SDS011;21486;51.916;8.378;2024-02-26T07:45:15;2.83;;;2.33;;
35380;SDS011;21486;51.916;8.378;2024-02-26T07:47:40;3.47;;;2.10;;
35380;SDS011;21486;51.916;8.378;2024-02-26T07:50:07;5.47;;;2.55;;
35380;SDS011;21486;51.916;8.378;2024-02-26T07:52:33;3.55;;;2.60;;
35380;SDS011;21486;51.916;8.378;2024-02-26T07:54:59;6.75;;;4.05;;
35380;SDS011;21486;51.916;8.378;2024-02-26T07:57:24;2.63;;;2.30;;
35380;SDS011;21486;51.916;8.378;2024-02-26T07:59:50;5.10;;;2.83;;
35380;SDS011;21486;51.916;8.378;2024-02-26T08:02:16;4.18;;;2.60;;
35380;SDS011;21486;51.916;8.378;2024-02-26T08:04:41;4.60;;;2.72;;
35380;SDS011;21486;51.916;8.378;2024-02-26T08:07:07;8.15;;;3.45;;
35380;SDS011;21486;51.916;8.378;2024-02-26T08:09:32;5.32;;;2.88;;
35380;SDS011;21486;51.916;8.378;2024-02-26T22:18:22;20.08;;;10.68;;
35380;SDS011;21486;51.916;8.378;2024-02-26T22:20:47;19.10;;;10.77;;
35380;SDS011;21486;51.916;8.378;2024-02-26T22:23:13;21.92;;;11.05;;
35380;SDS011;21486;51.916;8.378;2024-02-26T22:25:38;21.52;;;10.80;;
35380;SDS011;21486;51.916;8.378;2024-02-26T22:28:04;21.00;;;10.82;;
35380;SDS011;21486;51.916;8.378;2024-02-26T22:30:30;23.08;;;12.07;;
35380;SDS011;21486;51.916;8.378;2024-02-26T22:32:55;20.98;;;11.63;;
35380;SDS011;21486;51.916;8.378;2024-02-26T22:35:21;24.98;;;12.02;;
35380;SDS011;21486;51.916;8.378;2024-02-26T22:37:46;20.13;;;10.63;;
35380;SDS011;21486;51.916;8.378;2024-02-26T22:40:12;22.80;;;12.20;;
35380;SDS011;21486;51.916;8.378;2024-02-26T22:42:38;26.20;;;12.27;;
35380;SDS011;21486;51.916;8.378;2024-02-26T22:45:03;25.38;;;11.60;;
35380;SDS011;21486;51.916;8.378;2024-02-26T22:47:31;24.10;;;11.40;;
35380;SDS011;21486;51.916;8.378;2024-02-26T22:49:56;25.50;;;12.20;;
35380;SDS011;21486;51.916;8.378;2024-02-26T22:52:22;25.05;;;12.43;;
35380;SDS011;21486;51.916;8.378;2024-02-26T22:54:47;25.50;;;12.50;;
35380;SDS011;21486;51.916;8.378;2024-02-26T22:57:13;26.45;;;13.00;;
35380;SDS011;21486;51.916;8.378;2024-02-26T22:59:38;23.45;;;12.02;;
35380;SDS011;21486;51.916;8.378;2024-02-26T23:02:04;22.98;;;12.38;;
35380;SDS011;21486;51.916;8.378;2024-02-26T23:04:29;25.05;;;11.98;;
35380;SDS011;21486;51.916;8.378;2024-02-26T23:06:55;25.65;;;12.90;;
35380;SDS011;21486;51.916;8.378;2024-02-26T23:09:20;22.45;;;11.90;;
35380;SDS011;21486;51.916;8.378;2024-02-26T23:11:47;24.15;;;12.02;;
35380;SDS011;21486;51.916;8.378;2024-02-26T23:14:13;27.08;;;12.13;;
35380;SDS011;21486;51.916;8.378;2024-02-26T23:16:39;26.92;;;12.75;;
35380;SDS011;21486;51.916;8.378;2024-02-26T23:21:31;20.85;;;11.63;;
35380;SDS011;21486;51.916;8.378;2024-02-26T23:23:56;29.67;;;12.88;;
35380;SDS011;21486;51.916;8.378;2024-02-26T23:26:23;24.33;;;12.10;;
35380;SDS011;21486;51.916;8.378;2024-02-26T23:28:49;30.42;;;12.95;;
35380;SDS011;21486;51.916;8.378;2024-02-26T23:31:15;25.70;;;11.73;;
35380;SDS011;21486;51.916;8.378;2024-02-26T23:33:40;25.25;;;12.30;;
35380;SDS011;21486;51.916;8.378;2024-02-26T23:36:06;24.10;;;12.38;;
35380;SDS011;21486;51.916;8.378;2024-02-26T23:38:33;27.88;;;13.20;;
35380;SDS011;21486;51.916;8.378;2024-02-26T23:40:59;24.35;;;12.18;;
35380;SDS011;21486;51.916;8.378;2024-02-26T23:43:25;26.58;;;13.38;;
35380;SDS011;21486;51.916;8.378;2024-02-26T23:45:51;27.75;;;11.68;;
35380;SDS011;21486;51.916;8.378;2024-02-26T23:48:17;27.02;;;12.85;;
35380;SDS011;21486;51.916;8.378;2024-02-26T23:50:43;26.70;;;12.50;;
35380;SDS011;21486;51.916;8.378;2024-02-26T23:53:09;23.67;;;12.70;;
35380;SDS011;21486;51.916;8.378;2024-02-26T23:55:34;25.02;;;12.30;;
35380;SDS011;21486;51.916;8.378;2024-02-26T23:58:00;29.45;;;13.77;;
